sensor_id;sensor_type;location;lat;lon;timestamp;P1;durP1;ratioP1;P2;durP2;ratioP2
53867;SDS011;41577;47.470;19.080;2023-10-31T00:00:09;13.40;;;7.45;;
53867;SDS011;41577;47.470;19.080;2023-10-31T00:00:22;13.07;;;7.28;;
53867;SDS011;41577;47.470;19.080;2023-10-31T00:00:34;13.10;;;7.03;;
53867;SDS011;41577;47.470;19.080;2023-10-31T00:00:46;19.75;;;7.03;;
53867;SDS011;41577;47.470;19.080;2023-10-31T00:00:58;20.17;;;7.28;;
53867;SDS011;41577;47.470;19.080;2023-10-31T00:01:10;15.13;;;7.10;;
53867;SDS011;41577;47.470;19.080;2023-10-31T00:01:22;11.95;;;7.38;;
53867;SDS011;41577;47.470;19.080;2023-10-31T00:01:34;10.25;;;7.30;;
53867;SDS011;41577;47.470;19.080;2023-10-31T00:01:46;11.98;;;7.68;;
53867;SDS011;41577;47.470;19.080;2023-10-31T00:01:58;10.88;;;7.43;;
53867;SDS011;41577;47.470;19.080;2023-10-31T00:02:10;12.93;;;7.55;;
53867;SDS011;41577;47.470;19.080;2023-10-31T00:02:21;16.83;;;7.70;;
53867;SDS011;41577;47.470;19.080;2023-10-31T00:02:33;16.20;;;7.97;;
53867;SDS011;41577;47.470;19.080;2023-10-31T00:02:45;13.27;;;7.85;;
53867;SDS011;41577;47.470;19.080;2023-10-31T00:02:57;12.60;;;7.65;;
53867;SDS011;41577;47.470;19.080;2023-10-31T00:03:09;14.57;;;7.57;;
53867;SDS011;41577;47.470;19.080;2023-10-31T00:03:21;22.30;;;7.90;;
53867;SDS011;41577;47.470;19.080;2023-10-31T00:03:33;23.95;;;7.68;;
53867;SDS011;41577;47.470;19.080;2023-10-31T00:03:45;17.95;;;7.68;;
53867;SDS011;41577;47.470;19.080;2023-10-31T00:03:57;14.65;;;7.60;;
53867;SDS011;41577;47.470;19.080;2023-10-31T00:04:09;12.25;;;7.20;;
53867;SDS011;41577;47.470;19.080;2023-10-31T00:04:21;11.13;;;7.38;;
53867;SDS011;41577;47.470;19.080;2023-10-31T00:04:33;13.23;;;7.90;;
53867;SDS011;41577;47.470;19.080;2023-10-31T00:04:45;14.40;;;7.93;;
53867;SDS011;41577;47.470;19.080;2023-10-31T00:04:57;15.88;;;7.85;;
53867;SDS011;41577;47.470;19.080;2023-10-31T00:05:09;16.00;;;7.95;;
53867;SDS011;41577;47.470;19.080;2023-10-31T00:05:20;14.57;;;8.13;;
53867;SDS011;41577;47.470;19.080;2023-10-31T00:05:32;13.25;;;7.80;;
53867;SDS011;41577;47.470;19.080;2023-10-31T00:05:44;16.00;;;7.90;;
53867;SDS011;41577;47.470;19.080;2023-10-31T00:05:56;17.23;;;7.68;;
53867;SDS011;41577;47.470;19.080;2023-10-31T00:06:08;17.80;;;7.85;;
53867;SDS011;41577;47.470;19.080;2023-10-31T00:06:20;15.40;;;7.50;;
53867;SDS011;41577;47.470;19.080;2023-10-31T00:06:32;14.52;;;7.68;;
53867;SDS011;41577;47.470;19.080;2023-10-31T00:06:44;12.55;;;7.65;;
53867;SDS011;41577;47.470;19.080;2023-10-31T00:06:56;12.20;;;7.65;;
53867;SDS011;41577;47.470;19.080;2023-10-31T00:07:07;11.85;;;7.72;;
53867;SDS011;41577;47.470;19.080;2023-10-31T00:07:19;12.32;;;8.07;;
53867;SDS011;41577;47.470;19.080;2023-10-31T00:07:31;12.88;;;8.60;;
53867;SDS011;41577;47.470;19.080;2023-10-31T00:07:43;11.80;;;8.02;;
53867;SDS011;41577;47.470;19.080;2023-10-31T00:07:55;13.27;;;8.05;;
53867;SDS011;41577;47.470;19.080;2023-10-31T00:08:07;14.93;;;7.82;;
53867;SDS011;41577;47.470;19.080;2023-10-31T00:08:19;13.43;;;7.55;;
53867;SDS011;41577;47.470;19.080;2023-10-31T00:08:31;13.43;;;7.45;;
53867;SDS011;41577;47.470;19.080;2023-10-31T00:08:43;11.60;;;7.15;;
53867;SDS011;41577;47.470;19.080;2023-10-31T00:08:55;13.10;;;7.53;;
53867;SDS011;41577;47.470;19.080;2023-10-31T00:09:07;13.70;;;7.80;;
53867;SDS011;41577;47.470;19.080;2023-10-31T00:09:19;20.77;;;8.13;;
53867;SDS011;41577;47.470;19.080;2023-10-31T00:09:31;20.60;;;8.32;;
53867;SDS011;41577;47.470;19.080;2023-10-31T00:09:43;19.40;;;8.38;;
53867;SDS011;41577;47.470;19.080;2023-10-31T00:09:55;13.25;;;7.97;;
53867;SDS011;41577;47.470;19.080;2023-10-31T00:10:07;14.02;;;7.70;;
53867;SDS011;41577;47.470;19.080;2023-10-31T00:10:19;14.40;;;7.60;;
53867;SDS011;41577;47.470;19.080;2023-10-31T00:10:31;14.32;;;7.85;;
53867;SDS011;41577;47.470;19.080;2023-10-31T00:10:44;15.07;;;8.13;;
53867;SDS011;41577;47.470;19.080;2023-10-31T00:10:56;14.07;;;8.15;;
53867;SDS011;41577;47.470;19.080;2023-10-31T00:11:08;16.55;;;8.57;;
53867;SDS011;41577;47.470;19.080;2023-10-31T00:11:20;16.20;;;8.73;;
53867;SDS011;41577;47.470;19.080;2023-10-31T00:11:32;13.90;;;8.52;;
53867;SDS011;41577;47.470;19.080;2023-10-31T00:11:44;14.80;;;8.35;;
53867;SDS011;41577;47.470;19.080;2023-10-31T00:11:56;17.42;;;8.25;;
53867;SDS011;41577;47.470;19.080;2023-10-31T00:12:08;15.52;;;8.15;;
53867;SDS011;41577;47.470;19.080;2023-10-31T00:12:20;17.25;;;7.78;;
53867;SDS011;41577;47.470;19.080;2023-10-31T00:12:32;15.52;;;7.47;;
53867;SDS011;41577;47.470;19.080;2023-10-31T00:12:44;15.57;;;7.68;;
53867;SDS011;41577;47.470;19.080;2023-10-31T00:12:56;16.83;;;8.38;;
53867;SDS011;41577;47.470;19.080;2023-10-31T00:13:08;16.83;;;8.60;;
53867;SDS011;41577;47.470;19.080;2023-10-31T00:13:20;12.95;;;8.10;;
53867;SDS011;41577;47.470;19.080;2023-10-31T00:13:32;14.75;;;7.70;;
53867;SDS011;41577;47.470;19.080;2023-10-31T00:13:44;15.35;;;7.80;;
53867;SDS011;41577;47.470;19.080;2023-10-31T00:13:55;17.45;;;8.57;;
53867;SDS011;41577;47.470;19.080;2023-10-31T00:14:07;14.35;;;8.60;;
53867;SDS011;41577;47.470;19.080;2023-10-31T00:14:39;17.85;;;7.60;;
53867;SDS011;41577;47.470;19.080;2023-10-31T00:14:51;18.77;;;7.88;;
53867;SDS011;41577;47.470;19.080;2023-10-31T00:15:03;16.20;;;8.35;;
53867;SDS011;41577;47.470;19.080;2023-10-31T00:15:15;15.45;;;8.30;;
53867;SDS011;41577;47.470;19.080;2023-10-31T00:15:27;14.23;;;7.72;;
53867;SDS011;41577;47.470;19.080;2023-10-31T00:15:39;13.90;;;7.82;;
53867;SDS011;41577;47.470;19.080;2023-10-31T00:15:51;15.32;;;7.85;;
53867;SDS011;41577;47.470;19.080;2023-10-31T00:16:03;15.23;;;7.90;;
53867;SDS011;41577;47.470;19.080;2023-10-31T00:16:15;16.60;;;7.88;;
53867;SDS011;41577;47.470;19.080;2023-10-31T00:16:27;16.02;;;8.02;;
53867;SDS011;41577;47.470;19.080;2023-10-31T00:16:39;15.52;;;8.25;;
53867;SDS011;41577;47.470;19.080;2023-10-31T00:16:51;23.80;;;8.70;;
53867;SDS011;41577;47.470;19.080;2023-10-31T00:17:03;27.15;;;8.18;;
53867;SDS011;41577;47.470;19.080;2023-10-31T00:17:15;25.65;;;7.95;;
53867;SDS011;41577;47.470;19.080;2023-10-31T00:17:27;16.40;;;7.80;;
53867;SDS011;41577;47.470;19.080;2023-10-31T00:17:38;12.50;;;7.53;;
53867;SDS011;41577;47.470;19.080;2023-10-31T00:17:50;12.00;;;7.20;;
53867;SDS011;41577;47.470;19.080;2023-10-31T00:18:02;11.25;;;7.18;;
53867;SDS011;41577;47.470;19.080;2023-10-31T00:18:14;15.68;;;7.18;;
53867;SDS011;41577;47.470;19.080;2023-10-31T00:18:26;15.38;;;7.05;;
53867;SDS011;41577;47.470;19.080;2023-10-31T00:18:38;13.00;;;7.50;;
53867;SDS011;41577;47.470;19.080;2023-10-31T00:18:50;11.23;;;7.45;;
53867;SDS011;41577;47.470;19.080;2023-10-31T00:19:02;11.88;;;7.82;;
53867;SDS011;41577;47.470;19.080;2023-10-31T00:19:14;13.90;;;8.07;;
53867;SDS011;41577;47.470;19.080;2023-10-31T00:19:26;16.60;;;8.50;;
53867;SDS011;41577;47.470;19.080;2023-10-31T00:19:37;20.15;;;9.10;;
53867;SDS011;41577;47.470;19.080;2023-10-31T00:19:49;17.63;;;8.73;;
53867;SDS011;41577;47.470;19.080;2023-10-31T00:20:01;15.13;;;8.05;;
53867;SDS011;41577;47.470;19.080;2023-10-31T00:20:13;12.52;;;7.68;;
53867;SDS011;41577;47.470;19.080;2023-10-31T00:20:25;13.95;;;7.70;;
53867;SDS011;41577;47.470;19.080;2023-10-31T00:20:37;14.02;;;7.82;;
53867;SDS011;41577;47.470;19.080;2023-10-31T00:20:49;17.63;;;7.80;;
53867;SDS011;41577;47.470;19.080;2023-10-31T00:21:01;19.95;;;7.68;;
53867;SDS011;41577;47.470;19.080;2023-10-31T00:21:13;18.40;;;8.25;;
53867;SDS011;41577;47.470;19.080;2023-10-31T00:21:28;11.90;;;8.23;;
53867;SDS011;41577;47.470;19.080;2023-10-31T00:21:40;16.88;;;8.00;;
53867;SDS011;41577;47.470;19.080;2023-10-31T00:21:52;19.02;;;8.43;;
53867;SDS011;41577;47.470;19.080;2023-10-31T00:22:04;16.23;;;8.35;;
53867;SDS011;41577;47.470;19.080;2023-10-31T00:22:15;15.02;;;8.57;;
53867;SDS011;41577;47.470;19.080;2023-10-31T00:22:27;15.65;;;8.25;;
53867;SDS011;41577;47.470;19.080;2023-10-31T00:22:39;15.15;;;8.07;;
53867;SDS011;41577;47.470;19.080;2023-10-31T00:22:51;15.32;;;7.90;;
53867;SDS011;41577;47.470;19.080;2023-10-31T00:23:03;14.35;;;7.50;;
53867;SDS011;41577;47.470;19.080;2023-10-31T00:23:15;14.48;;;7.32;;
53867;SDS011;41577;47.470;19.080;2023-10-31T00:23:27;16.85;;;7.80;;
53867;SDS011;41577;47.470;19.080;2023-10-31T00:23:46;17.50;;;7.95;;
53867;SDS011;41577;47.470;19.080;2023-10-31T00:23:58;14.50;;;8.27;;
53867;SDS011;41577;47.470;19.080;2023-10-31T00:24:10;15.80;;;8.23;;
53867;SDS011;41577;47.470;19.080;2023-10-31T00:24:22;14.98;;;7.97;;
53867;SDS011;41577;47.470;19.080;2023-10-31T00:24:33;12.20;;;7.82;;
53867;SDS011;41577;47.470;19.080;2023-10-31T00:24:45;12.63;;;7.88;;
53867;SDS011;41577;47.470;19.080;2023-10-31T00:24:57;14.18;;;8.07;;
53867;SDS011;41577;47.470;19.080;2023-10-31T00:25:09;15.77;;;8.65;;
53867;SDS011;41577;47.470;19.080;2023-10-31T00:25:21;15.65;;;8.70;;
53867;SDS011;41577;47.470;19.080;2023-10-31T00:25:33;15.15;;;8.73;;
53867;SDS011;41577;47.470;19.080;2023-10-31T00:25:46;14.00;;;8.57;;
53867;SDS011;41577;47.470;19.080;2023-10-31T00:25:58;13.88;;;8.13;;
53867;SDS011;41577;47.470;19.080;2023-10-31T00:26:10;13.80;;;8.07;;
53867;SDS011;41577;47.470;19.080;2023-10-31T00:26:25;15.05;;;8.77;;
53867;SDS011;41577;47.470;19.080;2023-10-31T00:26:37;19.65;;;8.98;;
53867;SDS011;41577;47.470;19.080;2023-10-31T00:26:49;23.10;;;8.82;;
53867;SDS011;41577;47.470;19.080;2023-10-31T00:27:01;22.98;;;8.25;;
53867;SDS011;41577;47.470;19.080;2023-10-31T00:27:13;17.95;;;7.57;;
53867;SDS011;41577;47.470;19.080;2023-10-31T00:27:24;17.95;;;8.00;;
53867;SDS011;41577;47.470;19.080;2023-10-31T00:27:36;15.07;;;8.30;;
53867;SDS011;41577;47.470;19.080;2023-10-31T00:27:48;16.33;;;8.65;;
53867;SDS011;41577;47.470;19.080;2023-10-31T00:28:00;16.05;;;8.20;;
53867;SDS011;41577;47.470;19.080;2023-10-31T00:28:12;13.70;;;7.80;;
53867;SDS011;41577;47.470;19.080;2023-10-31T00:28:24;13.30;;;7.72;;
53867;SDS011;41577;47.470;19.080;2023-10-31T00:28:36;11.85;;;7.45;;
53867;SDS011;41577;47.470;19.080;2023-10-31T00:28:48;12.80;;;7.53;;
53867;SDS011;41577;47.470;19.080;2023-10-31T00:28:59;12.60;;;7.82;;
53867;SDS011;41577;47.470;19.080;2023-10-31T00:29:11;11.95;;;7.53;;
53867;SDS011;41577;47.470;19.080;2023-10-31T00:29:23;10.50;;;7.22;;
53867;SDS011;41577;47.470;19.080;2023-10-31T00:29:35;11.23;;;7.65;;
53867;SDS011;41577;47.470;19.080;2023-10-31T00:29:47;14.27;;;8.30;;
53867;SDS011;41577;47.470;19.080;2023-10-31T00:29:59;18.42;;;8.80;;
53867;SDS011;41577;47.470;19.080;2023-10-31T00:30:11;19.38;;;8.55;;
53867;SDS011;41577;47.470;19.080;2023-10-31T00:30:23;17.75;;;7.97;;
53867;SDS011;41577;47.470;19.080;2023-10-31T00:30:35;14.30;;;7.57;;
53867;SDS011;41577;47.470;19.080;2023-10-31T00:30:47;15.30;;;7.95;;
53867;SDS011;41577;47.470;19.080;2023-10-31T00:30:59;15.07;;;7.82;;
53867;SDS011;41577;47.470;19.080;2023-10-31T00:31:11;11.25;;;6.90;;
53867;SDS011;41577;47.470;19.080;2023-10-31T00:31:23;11.27;;;6.78;;
53867;SDS011;41577;47.470;19.080;2023-10-31T00:31:35;11.75;;;7.25;;
53867;SDS011;41577;47.470;19.080;2023-10-31T00:31:46;12.82;;;7.25;;
53867;SDS011;41577;47.470;19.080;2023-10-31T00:31:59;13.88;;;7.45;;
53867;SDS011;41577;47.470;19.080;2023-10-31T00:32:11;14.80;;;7.90;;
53867;SDS011;41577;47.470;19.080;2023-10-31T00:32:23;13.57;;;7.85;;
53867;SDS011;41577;47.470;19.080;2023-10-31T00:32:35;13.82;;;7.75;;
53867;SDS011;41577;47.470;19.080;2023-10-31T00:32:47;12.10;;;7.47;;
53867;SDS011;41577;47.470;19.080;2023-10-31T00:32:59;12.13;;;7.57;;
53867;SDS011;41577;47.470;19.080;2023-10-31T00:33:11;13.40;;;7.63;;
53867;SDS011;41577;47.470;19.080;2023-10-31T00:33:23;14.63;;;7.95;;
53867;SDS011;41577;47.470;19.080;2023-10-31T00:33:35;14.95;;;8.18;;
53867;SDS011;41577;47.470;19.080;2023-10-31T00:33:47;13.07;;;8.05;;
53867;SDS011;41577;47.470;19.080;2023-10-31T00:33:59;13.57;;;7.97;;
53867;SDS011;41577;47.470;19.080;2023-10-31T00:34:11;13.73;;;8.55;;
53867;SDS011;41577;47.470;19.080;2023-10-31T00:34:23;13.48;;;8.25;;
53867;SDS011;41577;47.470;19.080;2023-10-31T00:34:35;11.77;;;7.85;;
53867;SDS011;41577;47.470;19.080;2023-10-31T00:34:47;13.77;;;8.02;;
53867;SDS011;41577;47.470;19.080;2023-10-31T00:34:58;15.10;;;8.18;;
53867;SDS011;41577;47.470;19.080;2023-10-31T00:35:10;13.90;;;7.88;;
53867;SDS011;41577;47.470;19.080;2023-10-31T00:35:22;12.77;;;7.95;;
53867;SDS011;41577;47.470;19.080;2023-10-31T00:35:34;16.15;;;8.23;;
53867;SDS011;41577;47.470;19.080;2023-10-31T00:35:46;17.40;;;8.60;;
53867;SDS011;41577;47.470;19.080;2023-10-31T00:35:58;16.30;;;8.65;;
53867;SDS011;41577;47.470;19.080;2023-10-31T00:36:10;15.95;;;8.65;;
53867;SDS011;41577;47.470;19.080;2023-10-31T00:36:22;16.45;;;8.50;;
53867;SDS011;41577;47.470;19.080;2023-10-31T00:36:34;15.05;;;8.35;;
53867;SDS011;41577;47.470;19.080;2023-10-31T00:36:46;15.20;;;8.32;;
53867;SDS011;41577;47.470;19.080;2023-10-31T00:36:58;15.93;;;8.50;;
53867;SDS011;41577;47.470;19.080;2023-10-31T00:37:10;15.65;;;8.25;;
53867;SDS011;41577;47.470;19.080;2023-10-31T00:37:22;13.02;;;7.97;;
53867;SDS011;41577;47.470;19.080;2023-10-31T00:37:34;11.25;;;7.18;;
53867;SDS011;41577;47.470;19.080;2023-10-31T00:37:46;11.52;;;6.95;;
53867;SDS011;41577;47.470;19.080;2023-10-31T00:37:58;17.98;;;7.60;;
53867;SDS011;41577;47.470;19.080;2023-10-31T00:38:10;20.25;;;8.23;;
53867;SDS011;41577;47.470;19.080;2023-10-31T00:38:21;18.25;;;8.40;;
53867;SDS011;41577;47.470;19.080;2023-10-31T00:38:33;16.48;;;8.35;;
53867;SDS011;41577;47.470;19.080;2023-10-31T00:38:45;14.55;;;8.18;;
53867;SDS011;41577;47.470;19.080;2023-10-31T00:38:57;13.38;;;7.68;;
53867;SDS011;41577;47.470;19.080;2023-10-31T00:39:09;18.10;;;7.82;;
53867;SDS011;41577;47.470;19.080;2023-10-31T00:39:21;17.10;;;7.82;;
53867;SDS011;41577;47.470;19.080;2023-10-31T00:39:33;15.82;;;7.30;;
53867;SDS011;41577;47.470;19.080;2023-10-31T00:39:45;16.15;;;8.18;;
53867;SDS011;41577;47.470;19.080;2023-10-31T00:39:57;16.63;;;8.65;;
53867;SDS011;41577;47.470;19.080;2023-10-31T00:40:10;15.20;;;8.50;;
53867;SDS011;41577;47.470;19.080;2023-10-31T00:40:22;15.07;;;8.45;;
53867;SDS011;41577;47.470;19.080;2023-10-31T00:40:34;12.35;;;7.60;;
53867;SDS011;41577;47.470;19.080;2023-10-31T00:40:47;12.15;;;7.50;;
53867;SDS011;41577;47.470;19.080;2023-10-31T00:40:59;15.80;;;7.65;;
53867;SDS011;41577;47.470;19.080;2023-10-31T00:41:11;17.40;;;7.70;;
53867;SDS011;41577;47.470;19.080;2023-10-31T00:41:24;19.77;;;7.78;;
53867;SDS011;41577;47.470;19.080;2023-10-31T00:41:36;18.73;;;7.95;;
53867;SDS011;41577;47.470;19.080;2023-10-31T00:41:47;16.83;;;8.43;;
53867;SDS011;41577;47.470;19.080;2023-10-31T00:41:59;13.15;;;7.95;;
53867;SDS011;41577;47.470;19.080;2023-10-31T00:42:11;13.27;;;7.68;;
53867;SDS011;41577;47.470;19.080;2023-10-31T00:42:23;14.52;;;8.15;;
53867;SDS011;41577;47.470;19.080;2023-10-31T00:42:35;14.02;;;8.05;;
53867;SDS011;41577;47.470;19.080;2023-10-31T00:42:47;14.23;;;7.88;;
53867;SDS011;41577;47.470;19.080;2023-10-31T00:42:59;15.85;;;8.00;;
53867;SDS011;41577;47.470;19.080;2023-10-31T00:43:11;15.10;;;8.30;;
53867;SDS011;41577;47.470;19.080;2023-10-31T00:43:23;14.48;;;8.40;;
53867;SDS011;41577;47.470;19.080;2023-10-31T00:43:35;15.13;;;8.43;;
53867;SDS011;41577;47.470;19.080;2023-10-31T00:43:47;14.32;;;7.93;;
53867;SDS011;41577;47.470;19.080;2023-10-31T00:43:59;17.02;;;8.23;;
53867;SDS011;41577;47.470;19.080;2023-10-31T00:44:11;17.38;;;8.40;;
53867;SDS011;41577;47.470;19.080;2023-10-31T00:44:23;16.00;;;7.60;;
53867;SDS011;41577;47.470;19.080;2023-10-31T00:44:35;14.70;;;7.28;;
53867;SDS011;41577;47.470;19.080;2023-10-31T00:44:47;15.43;;;7.05;;
53867;SDS011;41577;47.470;19.080;2023-10-31T00:44:58;14.32;;;6.97;;
53867;SDS011;41577;47.470;19.080;2023-10-31T00:45:11;12.82;;;7.25;;
53867;SDS011;41577;47.470;19.080;2023-10-31T00:45:23;12.80;;;7.25;;
53867;SDS011;41577;47.470;19.080;2023-10-31T00:45:35;13.73;;;7.45;;
53867;SDS011;41577;47.470;19.080;2023-10-31T00:45:48;22.42;;;8.23;;
53867;SDS011;41577;47.470;19.080;2023-10-31T00:46:01;20.13;;;8.10;;
53867;SDS011;41577;47.470;19.080;2023-10-31T00:46:14;14.40;;;7.10;;
53867;SDS011;41577;47.470;19.080;2023-10-31T00:46:25;11.95;;;7.35;;
53867;SDS011;41577;47.470;19.080;2023-10-31T00:46:37;13.13;;;7.95;;
53867;SDS011;41577;47.470;19.080;2023-10-31T00:46:49;13.43;;;8.63;;
53867;SDS011;41577;47.470;19.080;2023-10-31T00:47:01;13.68;;;8.63;;
53867;SDS011;41577;47.470;19.080;2023-10-31T00:47:13;15.95;;;8.20;;
53867;SDS011;41577;47.470;19.080;2023-10-31T00:47:25;18.40;;;8.68;;
53867;SDS011;41577;47.470;19.080;2023-10-31T00:47:37;19.10;;;8.82;;
53867;SDS011;41577;47.470;19.080;2023-10-31T00:47:49;17.00;;;8.20;;
53867;SDS011;41577;47.470;19.080;2023-10-31T00:48:01;12.90;;;7.63;;
53867;SDS011;41577;47.470;19.080;2023-10-31T00:48:14;13.13;;;8.20;;
53867;SDS011;41577;47.470;19.080;2023-10-31T00:48:26;13.85;;;8.25;;
53867;SDS011;41577;47.470;19.080;2023-10-31T00:48:38;13.65;;;8.23;;
53867;SDS011;41577;47.470;19.080;2023-10-31T00:48:51;12.48;;;7.80;;
53867;SDS011;41577;47.470;19.080;2023-10-31T00:49:03;12.75;;;8.05;;
53867;SDS011;41577;47.470;19.080;2023-10-31T00:49:15;16.92;;;8.07;;
53867;SDS011;41577;47.470;19.080;2023-10-31T00:49:27;16.40;;;7.72;;
53867;SDS011;41577;47.470;19.080;2023-10-31T00:49:38;19.98;;;7.75;;
53867;SDS011;41577;47.470;19.080;2023-10-31T00:49:50;18.25;;;7.80;;
53867;SDS011;41577;47.470;19.080;2023-10-31T00:50:02;15.80;;;7.90;;
53867;SDS011;41577;47.470;19.080;2023-10-31T00:50:15;14.15;;;8.02;;
53867;SDS011;41577;47.470;19.080;2023-10-31T00:50:27;13.63;;;7.85;;
53867;SDS011;41577;47.470;19.080;2023-10-31T00:50:39;13.95;;;7.70;;
53867;SDS011;41577;47.470;19.080;2023-10-31T00:50:51;14.60;;;8.18;;
53867;SDS011;41577;47.470;19.080;2023-10-31T00:51:03;16.10;;;7.93;;
53867;SDS011;41577;47.470;19.080;2023-10-31T00:51:15;16.13;;;7.95;;
53867;SDS011;41577;47.470;19.080;2023-10-31T00:51:27;13.93;;;8.07;;
53867;SDS011;41577;47.470;19.080;2023-10-31T00:51:39;13.70;;;8.38;;
53867;SDS011;41577;47.470;19.080;2023-10-31T00:51:50;13.77;;;8.30;;
53867;SDS011;41577;47.470;19.080;2023-10-31T00:52:03;14.20;;;7.93;;
53867;SDS011;41577;47.470;19.080;2023-10-31T00:52:15;14.57;;;7.53;;
53867;SDS011;41577;47.470;19.080;2023-10-31T00:52:27;15.52;;;7.50;;
53867;SDS011;41577;47.470;19.080;2023-10-31T00:52:38;12.75;;;7.38;;
53867;SDS011;41577;47.470;19.080;2023-10-31T00:52:50;11.45;;;7.55;;
53867;SDS011;41577;47.470;19.080;2023-10-31T00:53:02;13.57;;;7.72;;
53867;SDS011;41577;47.470;19.080;2023-10-31T00:53:14;14.27;;;7.55;;
53867;SDS011;41577;47.470;19.080;2023-10-31T00:53:26;16.90;;;8.05;;
53867;SDS011;41577;47.470;19.080;2023-10-31T00:53:38;17.15;;;8.52;;
53867;SDS011;41577;47.470;19.080;2023-10-31T00:53:50;13.68;;;8.18;;
53867;SDS011;41577;47.470;19.080;2023-10-31T00:54:02;12.32;;;7.70;;
53867;SDS011;41577;47.470;19.080;2023-10-31T00:54:14;13.52;;;7.75;;
53867;SDS011;41577;47.470;19.080;2023-10-31T00:54:26;14.77;;;7.93;;
53867;SDS011;41577;47.470;19.080;2023-10-31T00:54:38;14.32;;;8.10;;
53867;SDS011;41577;47.470;19.080;2023-10-31T00:54:50;16.23;;;8.27;;
53867;SDS011;41577;47.470;19.080;2023-10-31T00:55:02;16.15;;;8.27;;
53867;SDS011;41577;47.470;19.080;2023-10-31T00:55:14;15.38;;;8.32;;
53867;SDS011;41577;47.470;19.080;2023-10-31T00:55:26;15.73;;;8.63;;
53867;SDS011;41577;47.470;19.080;2023-10-31T00:55:38;13.77;;;7.93;;
53867;SDS011;41577;47.470;19.080;2023-10-31T00:55:51;11.63;;;7.40;;
53867;SDS011;41577;47.470;19.080;2023-10-31T00:56:04;12.27;;;7.47;;
53867;SDS011;41577;47.470;19.080;2023-10-31T00:56:16;17.73;;;7.90;;
53867;SDS011;41577;47.470;19.080;2023-10-31T00:56:28;17.73;;;8.13;;
53867;SDS011;41577;47.470;19.080;2023-10-31T00:56:40;17.55;;;7.93;;
53867;SDS011;41577;47.470;19.080;2023-10-31T00:56:52;13.20;;;7.63;;
53867;SDS011;41577;47.470;19.080;2023-10-31T00:57:03;11.43;;;7.22;;
53867;SDS011;41577;47.470;19.080;2023-10-31T00:57:15;9.93;;;7.43;;
53867;SDS011;41577;47.470;19.080;2023-10-31T00:57:27;11.45;;;7.60;;
53867;SDS011;41577;47.470;19.080;2023-10-31T00:57:40;13.05;;;8.07;;
53867;SDS011;41577;47.470;19.080;2023-10-31T00:57:52;12.60;;;8.13;;
53867;SDS011;41577;47.470;19.080;2023-10-31T00:58:04;12.82;;;8.38;;
53867;SDS011;41577;47.470;19.080;2023-10-31T00:58:16;10.30;;;7.53;;
53867;SDS011;41577;47.470;19.080;2023-10-31T00:58:27;9.88;;;7.25;;
53867;SDS011;41577;47.470;19.080;2023-10-31T00:58:39;13.85;;;7.82;;
53867;SDS011;41577;47.470;19.080;2023-10-31T00:58:51;17.67;;;7.93;;
53867;SDS011;41577;47.470;19.080;2023-10-31T00:59:04;19.45;;;7.85;;
53867;SDS011;41577;47.470;19.080;2023-10-31T00:59:15;15.73;;;7.85;;
53867;SDS011;41577;47.470;19.080;2023-10-31T00:59:27;19.92;;;8.13;;
53867;SDS011;41577;47.470;19.080;2023-10-31T00:59:39;17.58;;;7.95;;
53867;SDS011;41577;47.470;19.080;2023-10-31T00:59:51;17.25;;;7.85;;
53867;SDS011;41577;47.470;19.080;2023-10-31T01:00:04;11.52;;;7.47;;
53867;SDS011;41577;47.470;19.080;2023-10-31T01:00:17;12.27;;;7.57;;
53867;SDS011;41577;47.470;19.080;2023-10-31T01:00:29;14.88;;;7.75;;
53867;SDS011;41577;47.470;19.080;2023-10-31T01:00:41;15.02;;;7.82;;
53867;SDS011;41577;47.470;19.080;2023-10-31T01:00:53;14.45;;;7.93;;
53867;SDS011;41577;47.470;19.080;2023-10-31T01:01:05;15.52;;;8.10;;
53867;SDS011;41577;47.470;19.080;2023-10-31T01:01:17;15.80;;;7.82;;
53867;SDS011;41577;47.470;19.080;2023-10-31T01:01:29;12.65;;;7.35;;
53867;SDS011;41577;47.470;19.080;2023-10-31T01:01:42;14.60;;;7.85;;
53867;SDS011;41577;47.470;19.080;2023-10-31T01:01:54;14.68;;;7.88;;
53867;SDS011;41577;47.470;19.080;2023-10-31T01:02:06;13.77;;;7.80;;
53867;SDS011;41577;47.470;19.080;2023-10-31T01:02:18;13.02;;;7.68;;
53867;SDS011;41577;47.470;19.080;2023-10-31T01:02:30;15.38;;;7.85;;
53867;SDS011;41577;47.470;19.080;2023-10-31T01:02:42;14.43;;;7.72;;
53867;SDS011;41577;47.470;19.080;2023-10-31T01:02:55;13.02;;;7.60;;
53867;SDS011;41577;47.470;19.080;2023-10-31T01:03:07;12.68;;;7.63;;
53867;SDS011;41577;47.470;19.080;2023-10-31T01:03:19;13.20;;;7.75;;
53867;SDS011;41577;47.470;19.080;2023-10-31T01:03:31;15.55;;;8.00;;
53867;SDS011;41577;47.470;19.080;2023-10-31T01:03:46;17.48;;;8.43;;
53867;SDS011;41577;47.470;19.080;2023-10-31T01:03:58;15.00;;;8.38;;
53867;SDS011;41577;47.470;19.080;2023-10-31T01:04:10;15.05;;;8.45;;
53867;SDS011;41577;47.470;19.080;2023-10-31T01:04:22;18.98;;;8.27;;
53867;SDS011;41577;47.470;19.080;2023-10-31T01:04:35;22.17;;;8.63;;
53867;SDS011;41577;47.470;19.080;2023-10-31T01:04:47;20.02;;;8.27;;
53867;SDS011;41577;47.470;19.080;2023-10-31T01:04:59;18.73;;;8.18;;
53867;SDS011;41577;47.470;19.080;2023-10-31T01:05:11;13.18;;;8.05;;
53867;SDS011;41577;47.470;19.080;2023-10-31T01:05:23;15.82;;;7.63;;
53867;SDS011;41577;47.470;19.080;2023-10-31T01:05:35;16.05;;;7.55;;
53867;SDS011;41577;47.470;19.080;2023-10-31T01:05:47;17.27;;;7.70;;
53867;SDS011;41577;47.470;19.080;2023-10-31T01:05:58;14.48;;;8.07;;
53867;SDS011;41577;47.470;19.080;2023-10-31T01:06:11;15.13;;;8.23;;
53867;SDS011;41577;47.470;19.080;2023-10-31T01:06:23;19.13;;;8.50;;
53867;SDS011;41577;47.470;19.080;2023-10-31T01:06:39;20.25;;;8.55;;
53867;SDS011;41577;47.470;19.080;2023-10-31T01:06:52;14.32;;;7.88;;
53867;SDS011;41577;47.470;19.080;2023-10-31T01:07:04;11.82;;;7.22;;
53867;SDS011;41577;47.470;19.080;2023-10-31T01:07:15;15.55;;;7.40;;
53867;SDS011;41577;47.470;19.080;2023-10-31T01:07:27;15.65;;;7.45;;
53867;SDS011;41577;47.470;19.080;2023-10-31T01:07:39;12.35;;;7.82;;
53867;SDS011;41577;47.470;19.080;2023-10-31T01:07:51;13.07;;;7.95;;
53867;SDS011;41577;47.470;19.080;2023-10-31T01:08:03;14.35;;;7.88;;
53867;SDS011;41577;47.470;19.080;2023-10-31T01:08:16;13.00;;;7.00;;
53867;SDS011;41577;47.470;19.080;2023-10-31T01:08:28;14.98;;;7.78;;
53867;SDS011;41577;47.470;19.080;2023-10-31T01:08:40;16.88;;;8.43;;
53867;SDS011;41577;47.470;19.080;2023-10-31T01:08:52;17.75;;;8.80;;
53867;SDS011;41577;47.470;19.080;2023-10-31T01:09:04;15.80;;;8.07;;
53867;SDS011;41577;47.470;19.080;2023-10-31T01:09:16;17.75;;;7.90;;
53867;SDS011;41577;47.470;19.080;2023-10-31T01:09:28;16.75;;;7.78;;
53867;SDS011;41577;47.470;19.080;2023-10-31T01:09:40;14.32;;;7.88;;
53867;SDS011;41577;47.470;19.080;2023-10-31T01:09:52;14.30;;;7.85;;
53867;SDS011;41577;47.470;19.080;2023-10-31T01:10:04;14.75;;;7.75;;
53867;SDS011;41577;47.470;19.080;2023-10-31T01:10:16;16.23;;;8.30;;
53867;SDS011;41577;47.470;19.080;2023-10-31T01:10:28;17.42;;;7.88;;
53867;SDS011;41577;47.470;19.080;2023-10-31T01:10:40;14.25;;;7.50;;
53867;SDS011;41577;47.470;19.080;2023-10-31T01:10:54;14.75;;;7.72;;